sensor_id;sensor_type;location;lat;lon;timestamp;P1;durP1;ratioP1;P2;durP2;ratioP2
5995;SDS011;3026;53.612;7.278;2022-12-18T00:00:48;85.67;;;28.97;;
5995;SDS011;3026;53.612;7.278;2022-12-18T00:03:15;85.60;;;30.93;;
5995;SDS011;3026;53.612;7.278;2022-12-18T00:05:48;82.10;;;29.00;;
5995;SDS011;3026;53.612;7.278;2022-12-18T00:08:16;88.27;;;28.77;;
5995;SDS011;3026;53.612;7.278;2022-12-18T00:10:43;81.20;;;28.50;;
5995;SDS011;3026;53.612;7.278;2022-12-18T00:13:11;80.73;;;30.90;;
5995;SDS011;3026;53.612;7.278;2022-12-18T00:15:40;79.10;;;28.53;;
5995;SDS011;3026;53.612;7.278;2022-12-18T00:18:08;77.73;;;29.03;;
5995;SDS011;3026;53.612;7.278;2022-12-18T00:20:36;70.07;;;29.27;;
5995;SDS011;3026;53.612;7.278;2022-12-18T00:23:04;74.03;;;29.70;;
5995;SDS011;3026;53.612;7.278;2022-12-18T00:25:32;88.70;;;29.13;;
5995;SDS011;3026;53.612;7.278;2022-12-18T00:28:01;84.97;;;30.80;;
5995;SDS011;3026;53.612;7.278;2022-12-18T00:30:28;85.60;;;29.27;;
5995;SDS011;3026;53.612;7.278;2022-12-18T00:32:57;77.90;;;28.07;;
5995;SDS011;3026;53.612;7.278;2022-12-18T00:35:24;74.87;;;28.70;;
5995;SDS011;3026;53.612;7.278;2022-12-18T00:37:51;83.53;;;29.90;;
5995;SDS011;3026;53.612;7.278;2022-12-18T00:40:18;76.77;;;28.63;;
5995;SDS011;3026;53.612;7.278;2022-12-18T00:42:44;81.03;;;28.03;;
5995;SDS011;3026;53.612;7.278;2022-12-18T00:45:23;79.73;;;29.20;;
5995;SDS011;3026;53.612;7.278;2022-12-18T00:47:56;68.33;;;29.07;;
5995;SDS011;3026;53.612;7.278;2022-12-18T00:50:27;77.17;;;28.40;;
5995;SDS011;3026;53.612;7.278;2022-12-18T00:52:57;97.50;;;31.03;;
5995;SDS011;3026;53.612;7.278;2022-12-18T00:55:26;80.47;;;29.40;;
5995;SDS011;3026;53.612;7.278;2022-12-18T00:57:56;85.63;;;29.73;;
5995;SDS011;3026;53.612;7.278;2022-12-18T01:00:28;82.93;;;30.70;;
5995;SDS011;3026;53.612;7.278;2022-12-18T01:03:10;80.43;;;29.20;;
5995;SDS011;3026;53.612;7.278;2022-12-18T01:05:39;81.27;;;30.63;;
5995;SDS011;3026;53.612;7.278;2022-12-18T01:08:07;72.07;;;29.53;;
5995;SDS011;3026;53.612;7.278;2022-12-18T01:10:34;65.57;;;27.17;;
5995;SDS011;3026;53.612;7.278;2022-12-18T01:13:01;78.50;;;30.40;;
5995;SDS011;3026;53.612;7.278;2022-12-18T01:15:28;78.17;;;30.03;;
5995;SDS011;3026;53.612;7.278;2022-12-18T01:17:55;70.17;;;29.17;;
5995;SDS011;3026;53.612;7.278;2022-12-18T01:20:24;83.10;;;28.17;;
5995;SDS011;3026;53.612;7.278;2022-12-18T01:22:50;67.23;;;26.40;;
5995;SDS011;3026;53.612;7.278;2022-12-18T01:25:17;67.13;;;27.23;;
5995;SDS011;3026;53.612;7.278;2022-12-18T01:27:44;77.10;;;28.80;;
5995;SDS011;3026;53.612;7.278;2022-12-18T01:30:14;68.27;;;26.60;;
5995;SDS011;3026;53.612;7.278;2022-12-18T01:32:41;68.53;;;27.13;;
5995;SDS011;3026;53.612;7.278;2022-12-18T01:35:08;66.77;;;27.67;;
5995;SDS011;3026;53.612;7.278;2022-12-18T01:37:37;73.23;;;29.30;;
5995;SDS011;3026;53.612;7.278;2022-12-18T01:40:04;81.03;;;29.57;;
5995;SDS011;3026;53.612;7.278;2022-12-18T01:42:32;75.27;;;27.97;;
5995;SDS011;3026;53.612;7.278;2022-12-18T01:45:00;76.47;;;26.87;;
5995;SDS011;3026;53.612;7.278;2022-12-18T01:47:31;71.30;;;26.77;;
5995;SDS011;3026;53.612;7.278;2022-12-18T01:50:04;70.80;;;28.07;;
5995;SDS011;3026;53.612;7.278;2022-12-18T01:52:34;67.70;;;26.57;;
5995;SDS011;3026;53.612;7.278;2022-12-18T01:55:04;77.90;;;27.67;;
5995;SDS011;3026;53.612;7.278;2022-12-18T01:57:33;77.37;;;27.43;;
5995;SDS011;3026;53.612;7.278;2022-12-18T02:00:02;73.60;;;28.07;;
5995;SDS011;3026;53.612;7.278;2022-12-18T02:02:31;62.27;;;25.63;;
5995;SDS011;3026;53.612;7.278;2022-12-18T02:04:58;69.07;;;26.50;;
5995;SDS011;3026;53.612;7.278;2022-12-18T02:07:29;73.63;;;24.97;;
5995;SDS011;3026;53.612;7.278;2022-12-18T02:10:06;69.80;;;26.57;;
5995;SDS011;3026;53.612;7.278;2022-12-18T02:12:42;66.67;;;25.03;;
5995;SDS011;3026;53.612;7.278;2022-12-18T02:15:13;71.50;;;25.53;;
5995;SDS011;3026;53.612;7.278;2022-12-18T02:17:46;66.43;;;26.03;;
5995;SDS011;3026;53.612;7.278;2022-12-18T02:20:17;68.40;;;25.07;;
5995;SDS011;3026;53.612;7.278;2022-12-18T02:22:51;70.83;;;25.67;;
5995;SDS011;3026;53.612;7.278;2022-12-18T02:25:36;70.00;;;25.47;;
5995;SDS011;3026;53.612;7.278;2022-12-18T02:28:11;65.67;;;24.83;;
5995;SDS011;3026;53.612;7.278;2022-12-18T02:30:42;74.77;;;25.37;;
5995;SDS011;3026;53.612;7.278;2022-12-18T02:33:11;74.67;;;27.20;;
5995;SDS011;3026;53.612;7.278;2022-12-18T02:35:38;76.10;;;26.07;;
5995;SDS011;3026;53.612;7.278;2022-12-18T02:38:07;79.10;;;28.17;;
5995;SDS011;3026;53.612;7.278;2022-12-18T02:40:35;81.77;;;26.67;;
5995;SDS011;3026;53.612;7.278;2022-12-18T02:43:07;65.17;;;28.13;;
5995;SDS011;3026;53.612;7.278;2022-12-18T02:45:35;84.77;;;28.97;;
5995;SDS011;3026;53.612;7.278;2022-12-18T02:48:12;76.97;;;25.10;;
5995;SDS011;3026;53.612;7.278;2022-12-18T02:50:41;71.53;;;25.73;;
5995;SDS011;3026;53.612;7.278;2022-12-18T02:53:14;81.00;;;28.13;;
5995;SDS011;3026;53.612;7.278;2022-12-18T02:55:52;86.30;;;26.53;;
5995;SDS011;3026;53.612;7.278;2022-12-18T02:58:26;79.17;;;26.23;;
5995;SDS011;3026;53.612;7.278;2022-12-18T03:01:02;75.77;;;24.93;;
5995;SDS011;3026;53.612;7.278;2022-12-18T03:03:38;64.43;;;25.23;;
5995;SDS011;3026;53.612;7.278;2022-12-18T03:06:08;77.60;;;26.40;;
5995;SDS011;3026;53.612;7.278;2022-12-18T03:08:40;76.97;;;26.93;;
5995;SDS011;3026;53.612;7.278;2022-12-18T03:11:11;74.40;;;24.90;;
5995;SDS011;3026;53.612;7.278;2022-12-18T03:13:40;69.43;;;25.57;;
5995;SDS011;3026;53.612;7.278;2022-12-18T03:16:14;69.50;;;26.57;;
5995;SDS011;3026;53.612;7.278;2022-12-18T03:18:54;90.50;;;27.73;;
5995;SDS011;3026;53.612;7.278;2022-12-18T03:21:26;86.10;;;26.67;;
5995;SDS011;3026;53.612;7.278;2022-12-18T03:23:58;79.23;;;26.03;;
5995;SDS011;3026;53.612;7.278;2022-12-18T03:26:27;84.37;;;26.40;;
5995;SDS011;3026;53.612;7.278;2022-12-18T03:28:56;68.43;;;24.67;;
5995;SDS011;3026;53.612;7.278;2022-12-18T03:31:28;80.70;;;25.30;;
5995;SDS011;3026;53.612;7.278;2022-12-18T03:34:04;85.33;;;27.47;;
5995;SDS011;3026;53.612;7.278;2022-12-18T03:36:35;78.53;;;25.83;;
5995;SDS011;3026;53.612;7.278;2022-12-18T03:39:02;74.60;;;26.93;;
5995;SDS011;3026;53.612;7.278;2022-12-18T03:41:31;82.73;;;28.23;;
5995;SDS011;3026;53.612;7.278;2022-12-18T03:44:01;68.23;;;24.73;;
5995;SDS011;3026;53.612;7.278;2022-12-18T03:46:38;70.00;;;25.83;;
5995;SDS011;3026;53.612;7.278;2022-12-18T03:49:14;75.57;;;25.30;;
5995;SDS011;3026;53.612;7.278;2022-12-18T03:51:50;79.97;;;27.83;;
5995;SDS011;3026;53.612;7.278;2022-12-18T03:54:21;82.60;;;27.23;;
5995;SDS011;3026;53.612;7.278;2022-12-18T03:56:52;81.50;;;27.20;;
5995;SDS011;3026;53.612;7.278;2022-12-18T03:59:23;79.60;;;26.40;;
5995;SDS011;3026;53.612;7.278;2022-12-18T04:01:53;79.67;;;26.17;;
5995;SDS011;3026;53.612;7.278;2022-12-18T04:04:24;76.53;;;25.57;;
5995;SDS011;3026;53.612;7.278;2022-12-18T04:06:52;81.13;;;25.33;;
5995;SDS011;3026;53.612;7.278;2022-12-18T04:09:19;77.67;;;25.93;;
5995;SDS011;3026;53.612;7.278;2022-12-18T04:11:47;78.13;;;28.60;;
5995;SDS011;3026;53.612;7.278;2022-12-18T04:14:14;77.47;;;26.53;;
5995;SDS011;3026;53.612;7.278;2022-12-18T04:16:41;83.77;;;26.37;;
5995;SDS011;3026;53.612;7.278;2022-12-18T04:19:09;82.63;;;26.97;;
5995;SDS011;3026;53.612;7.278;2022-12-18T04:21:36;77.80;;;25.83;;
5995;SDS011;3026;53.612;7.278;2022-12-18T04:24:03;71.97;;;25.57;;
5995;SDS011;3026;53.612;7.278;2022-12-18T04:26:31;73.80;;;25.67;;
5995;SDS011;3026;53.612;7.278;2022-12-18T04:28:57;79.60;;;25.40;;
5995;SDS011;3026;53.612;7.278;2022-12-18T04:31:24;82.30;;;28.87;;
5995;SDS011;3026;53.612;7.278;2022-12-18T04:33:51;64.87;;;24.97;;
5995;SDS011;3026;53.612;7.278;2022-12-18T04:36:20;68.60;;;26.30;;
5995;SDS011;3026;53.612;7.278;2022-12-18T04:38:47;72.63;;;25.10;;
5995;SDS011;3026;53.612;7.278;2022-12-18T04:41:14;78.93;;;26.70;;
5995;SDS011;3026;53.612;7.278;2022-12-18T04:43:40;66.00;;;24.93;;
5995;SDS011;3026;53.612;7.278;2022-12-18T04:46:07;76.87;;;25.77;;
5995;SDS011;3026;53.612;7.278;2022-12-18T04:48:35;78.30;;;26.57;;
5995;SDS011;3026;53.612;7.278;2022-12-18T04:51:03;76.90;;;25.07;;
5995;SDS011;3026;53.612;7.278;2022-12-18T04:53:31;72.00;;;24.97;;
5995;SDS011;3026;53.612;7.278;2022-12-18T04:56:02;80.77;;;25.13;;
5995;SDS011;3026;53.612;7.278;2022-12-18T04:58:31;66.17;;;24.80;;
5995;SDS011;3026;53.612;7.278;2022-12-18T05:00:57;61.67;;;24.47;;
5995;SDS011;3026;53.612;7.278;2022-12-18T05:03:24;60.67;;;23.53;;
5995;SDS011;3026;53.612;7.278;2022-12-18T05:05:51;64.17;;;23.43;;
5995;SDS011;3026;53.612;7.278;2022-12-18T05:08:18;70.30;;;23.47;;
5995;SDS011;3026;53.612;7.278;2022-12-18T05:10:46;58.70;;;23.67;;
5995;SDS011;3026;53.612;7.278;2022-12-18T05:13:13;55.20;;;22.77;;
5995;SDS011;3026;53.612;7.278;2022-12-18T05:15:40;65.83;;;24.00;;
5995;SDS011;3026;53.612;7.278;2022-12-18T05:18:08;64.23;;;22.33;;
5995;SDS011;3026;53.612;7.278;2022-12-18T05:20:35;56.00;;;21.87;;
5995;SDS011;3026;53.612;7.278;2022-12-18T05:23:01;49.13;;;20.33;;
5995;SDS011;3026;53.612;7.278;2022-12-18T05:25:29;55.90;;;19.50;;
5995;SDS011;3026;53.612;7.278;2022-12-18T05:27:57;50.60;;;19.93;;
5995;SDS011;3026;53.612;7.278;2022-12-18T05:30:24;47.93;;;19.57;;
5995;SDS011;3026;53.612;7.278;2022-12-18T05:32:52;48.63;;;18.07;;
5995;SDS011;3026;53.612;7.278;2022-12-18T05:35:19;40.43;;;18.70;;
5995;SDS011;3026;53.612;7.278;2022-12-18T05:37:46;39.43;;;16.87;;
5995;SDS011;3026;53.612;7.278;2022-12-18T05:40:13;46.77;;;18.43;;
5995;SDS011;3026;53.612;7.278;2022-12-18T05:42:40;43.60;;;18.23;;
5995;SDS011;3026;53.612;7.278;2022-12-18T05:45:09;51.17;;;17.70;;
5995;SDS011;3026;53.612;7.278;2022-12-18T05:47:36;43.33;;;18.00;;
5995;SDS011;3026;53.612;7.278;2022-12-18T05:50:03;43.87;;;18.43;;
5995;SDS011;3026;53.612;7.278;2022-12-18T05:52:31;43.97;;;17.50;;
5995;SDS011;3026;53.612;7.278;2022-12-18T05:54:58;38.30;;;16.73;;
5995;SDS011;3026;53.612;7.278;2022-12-18T05:57:25;41.67;;;17.00;;
5995;SDS011;3026;53.612;7.278;2022-12-18T05:59:52;38.00;;;18.60;;
5995;SDS011;3026;53.612;7.278;2022-12-18T06:02:20;43.87;;;17.07;;
5995;SDS011;3026;53.612;7.278;2022-12-18T06:04:47;37.43;;;15.33;;
5995;SDS011;3026;53.612;7.278;2022-12-18T06:07:13;36.13;;;17.63;;
5995;SDS011;3026;53.612;7.278;2022-12-18T06:09:40;42.43;;;17.30;;
5995;SDS011;3026;53.612;7.278;2022-12-18T06:12:07;37.87;;;17.03;;
5995;SDS011;3026;53.612;7.278;2022-12-18T06:14:34;37.97;;;16.27;;
5995;SDS011;3026;53.612;7.278;2022-12-18T06:17:01;41.73;;;16.93;;
5995;SDS011;3026;53.612;7.278;2022-12-18T06:19:29;37.90;;;16.83;;
5995;SDS011;3026;53.612;7.278;2022-12-18T06:21:56;37.50;;;16.33;;
5995;SDS011;3026;53.612;7.278;2022-12-18T06:24:24;40.47;;;18.37;;
5995;SDS011;3026;53.612;7.278;2022-12-18T06:26:50;43.40;;;18.10;;
5995;SDS011;3026;53.612;7.278;2022-12-18T06:29:17;39.80;;;16.37;;
5995;SDS011;3026;53.612;7.278;2022-12-18T06:31:44;36.77;;;16.80;;
5995;SDS011;3026;53.612;7.278;2022-12-18T06:34:11;34.07;;;15.67;;
5995;SDS011;3026;53.612;7.278;2022-12-18T06:36:39;35.70;;;15.53;;
5995;SDS011;3026;53.612;7.278;2022-12-18T06:39:06;37.17;;;15.37;;
5995;SDS011;3026;53.612;7.278;2022-12-18T06:41:34;37.77;;;16.50;;
5995;SDS011;3026;53.612;7.278;2022-12-18T06:44:01;35.53;;;15.47;;
5995;SDS011;3026;53.612;7.278;2022-12-18T06:46:29;41.27;;;17.43;;
5995;SDS011;3026;53.612;7.278;2022-12-18T06:48:57;37.77;;;16.13;;
5995;SDS011;3026;53.612;7.278;2022-12-18T06:51:25;33.23;;;14.97;;
5995;SDS011;3026;53.612;7.278;2022-12-18T06:53:53;36.53;;;16.03;;
5995;SDS011;3026;53.612;7.278;2022-12-18T06:56:20;38.63;;;16.47;;
5995;SDS011;3026;53.612;7.278;2022-12-18T06:58:47;39.50;;;16.20;;
5995;SDS011;3026;53.612;7.278;2022-12-18T07:01:17;38.20;;;16.83;;
5995;SDS011;3026;53.612;7.278;2022-12-18T07:03:44;34.60;;;16.50;;
5995;SDS011;3026;53.612;7.278;2022-12-18T07:06:13;36.50;;;15.70;;
5995;SDS011;3026;53.612;7.278;2022-12-18T07:08:41;36.07;;;15.67;;
5995;SDS011;3026;53.612;7.278;2022-12-18T07:11:09;38.53;;;15.57;;
5995;SDS011;3026;53.612;7.278;2022-12-18T07:13:36;34.40;;;15.73;;
5995;SDS011;3026;53.612;7.278;2022-12-18T07:16:04;31.40;;;14.57;;
5995;SDS011;3026;53.612;7.278;2022-12-18T07:18:33;32.40;;;16.03;;
5995;SDS011;3026;53.612;7.278;2022-12-18T07:21:02;32.93;;;14.73;;
5995;SDS011;3026;53.612;7.278;2022-12-18T07:23:31;35.17;;;14.63;;
5995;SDS011;3026;53.612;7.278;2022-12-18T07:26:00;33.50;;;15.20;;
5995;SDS011;3026;53.612;7.278;2022-12-18T07:28:30;37.50;;;16.03;;
5995;SDS011;3026;53.612;7.278;2022-12-18T07:30:57;32.17;;;13.93;;
5995;SDS011;3026;53.612;7.278;2022-12-18T07:33:25;31.33;;;14.10;;
5995;SDS011;3026;53.612;7.278;2022-12-18T07:35:51;33.37;;;14.50;;
5995;SDS011;3026;53.612;7.278;2022-12-18T07:38:18;28.67;;;13.77;;
5995;SDS011;3026;53.612;7.278;2022-12-18T07:40:45;26.23;;;13.00;;
5995;SDS011;3026;53.612;7.278;2022-12-18T07:43:12;33.33;;;14.63;;
5995;SDS011;3026;53.612;7.278;2022-12-18T07:45:41;34.13;;;13.63;;
5995;SDS011;3026;53.612;7.278;2022-12-18T07:48:08;29.17;;;14.20;;
5995;SDS011;3026;53.612;7.278;2022-12-18T07:50:36;27.77;;;14.30;;
5995;SDS011;3026;53.612;7.278;2022-12-18T07:53:03;29.97;;;13.20;;
5995;SDS011;3026;53.612;7.278;2022-12-18T07:55:30;26.40;;;13.00;;
5995;SDS011;3026;53.612;7.278;2022-12-18T07:58:00;31.23;;;14.30;;
5995;SDS011;3026;53.612;7.278;2022-12-18T08:00:28;28.20;;;13.77;;
5995;SDS011;3026;53.612;7.278;2022-12-18T08:02:57;29.63;;;13.80;;
5995;SDS011;3026;53.612;7.278;2022-12-18T08:05:24;36.00;;;15.63;;
5995;SDS011;3026;53.612;7.278;2022-12-18T08:07:51;36.67;;;15.17;;
5995;SDS011;3026;53.612;7.278;2022-12-18T08:10:19;30.40;;;13.07;;
5995;SDS011;3026;53.612;7.278;2022-12-18T08:12:48;28.83;;;13.53;;
5995;SDS011;3026;53.612;7.278;2022-12-18T08:15:16;27.67;;;12.93;;
5995;SDS011;3026;53.612;7.278;2022-12-18T08:17:43;34.53;;;14.07;;
5995;SDS011;3026;53.612;7.278;2022-12-18T08:20:11;34.13;;;14.83;;
5995;SDS011;3026;53.612;7.278;2022-12-18T08:22:40;31.63;;;14.60;;
5995;SDS011;3026;53.612;7.278;2022-12-18T08:25:07;32.07;;;14.03;;
5995;SDS011;3026;53.612;7.278;2022-12-18T08:27:35;29.40;;;13.37;;
5995;SDS011;3026;53.612;7.278;2022-12-18T08:30:02;35.03;;;13.43;;
5995;SDS011;3026;53.612;7.278;2022-12-18T08:32:29;23.20;;;12.43;;
5995;SDS011;3026;53.612;7.278;2022-12-18T08:34:58;24.30;;;13.00;;
5995;SDS011;3026;53.612;7.278;2022-12-18T08:37:26;25.70;;;13.13;;
5995;SDS011;3026;53.612;7.278;2022-12-18T08:39:53;30.23;;;12.37;;
5995;SDS011;3026;53.612;7.278;2022-12-18T08:42:20;30.57;;;13.00;;
5995;SDS011;3026;53.612;7.278;2022-12-18T08:45:04;27.87;;;12.40;;
5995;SDS011;3026;53.612;7.278;2022-12-18T08:47:32;30.60;;;12.43;;
5995;SDS011;3026;53.612;7.278;2022-12-18T08:49:59;25.87;;;12.23;;
5995;SDS011;3026;53.612;7.278;2022-12-18T08:52:27;28.80;;;12.17;;
5995;SDS011;3026;53.612;7.278;2022-12-18T08:54:54;24.83;;;11.43;;
5995;SDS011;3026;53.612;7.278;2022-12-18T08:57:21;26.77;;;12.43;;
5995;SDS011;3026;53.612;7.278;2022-12-18T08:59:48;20.10;;;11.47;;
5995;SDS011;3026;53.612;7.278;2022-12-18T09:02:14;26.10;;;12.60;;
5995;SDS011;3026;53.612;7.278;2022-12-18T09:04:41;24.23;;;11.23;;
5995;SDS011;3026;53.612;7.278;2022-12-18T09:07:08;29.63;;;11.40;;
5995;SDS011;3026;53.612;7.278;2022-12-18T09:09:37;23.10;;;10.57;;
5995;SDS011;3026;53.612;7.278;2022-12-18T09:12:03;23.00;;;11.13;;
5995;SDS011;3026;53.612;7.278;2022-12-18T09:14:30;26.13;;;11.77;;
5995;SDS011;3026;53.612;7.278;2022-12-18T09:16:57;22.77;;;10.70;;
5995;SDS011;3026;53.612;7.278;2022-12-18T09:19:24;19.80;;;11.07;;
5995;SDS011;3026;53.612;7.278;2022-12-18T09:21:51;22.87;;;11.73;;
5995;SDS011;3026;53.612;7.278;2022-12-18T09:24:18;22.13;;;10.80;;
5995;SDS011;3026;53.612;7.278;2022-12-18T09:26:52;20.93;;;10.40;;
5995;SDS011;3026;53.612;7.278;2022-12-18T09:29:20;20.43;;;10.67;;
5995;SDS011;3026;53.612;7.278;2022-12-18T09:31:48;22.03;;;10.93;;
5995;SDS011;3026;53.612;7.278;2022-12-18T09:34:15;24.13;;;11.13;;
5995;SDS011;3026;53.612;7.278;2022-12-18T09:36:43;18.33;;;9.50;;
5995;SDS011;3026;53.612;7.278;2022-12-18T09:39:09;24.80;;;10.47;;
5995;SDS011;3026;53.612;7.278;2022-12-18T09:41:40;20.73;;;10.67;;
5995;SDS011;3026;53.612;7.278;2022-12-18T09:44:14;18.37;;;8.87;;
5995;SDS011;3026;53.612;7.278;2022-12-18T09:46:47;18.53;;;9.67;;
5995;SDS011;3026;53.612;7.278;2022-12-18T09:49:19;15.50;;;9.10;;
5995;SDS011;3026;53.612;7.278;2022-12-18T09:51:50;16.63;;;8.63;;
5995;SDS011;3026;53.612;7.278;2022-12-18T09:54:21;17.87;;;9.60;;
5995;SDS011;3026;53.612;7.278;2022-12-18T09:56:51;19.53;;;9.87;;
5995;SDS011;3026;53.612;7.278;2022-12-18T09:59:22;16.90;;;9.03;;
5995;SDS011;3026;53.612;7.278;2022-12-18T10:01:52;18.17;;;9.33;;
5995;SDS011;3026;53.612;7.278;2022-12-18T10:04:18;18.90;;;8.73;;
5995;SDS011;3026;53.612;7.278;2022-12-18T10:06:46;17.10;;;9.10;;
5995;SDS011;3026;53.612;7.278;2022-12-18T10:09:21;19.43;;;9.03;;
5995;SDS011;3026;53.612;7.278;2022-12-18T10:11:56;17.50;;;9.03;;
5995;SDS011;3026;53.612;7.278;2022-12-18T10:14:33;14.27;;;8.17;;
5995;SDS011;3026;53.612;7.278;2022-12-18T10:17:05;13.00;;;7.27;;
5995;SDS011;3026;53.612;7.278;2022-12-18T10:19:42;17.97;;;8.20;;
5995;SDS011;3026;53.612;7.278;2022-12-18T10:22:18;17.87;;;8.53;;
5995;SDS011;3026;53.612;7.278;2022-12-18T10:24:52;15.77;;;8.20;;
5995;SDS011;3026;53.612;7.278;2022-12-18T10:27:26;14.30;;;7.30;;
5995;SDS011;3026;53.612;7.278;2022-12-18T10:29:56;16.10;;;8.83;;
5995;SDS011;3026;53.612;7.278;2022-12-18T10:32:24;16.53;;;9.50;;
5995;SDS011;3026;53.612;7.278;2022-12-18T10:34:53;25.97;;;9.77;;
5995;SDS011;3026;53.612;7.278;2022-12-18T10:37:23;14.83;;;8.27;;
5995;SDS011;3026;53.612;7.278;2022-12-18T10:42:36;14.03;;;8.00;;
5995;SDS011;3026;53.612;7.278;2022-12-18T10:45:09;14.10;;;7.80;;
5995;SDS011;3026;53.612;7.278;2022-12-18T10:47:37;14.77;;;8.53;;
5995;SDS011;3026;53.612;7.278;2022-12-18T10:50:17;15.90;;;8.50;;
5995;SDS011;3026;53.612;7.278;2022-12-18T10:52:53;19.97;;;8.67;;
5995;SDS011;3026;53.612;7.278;2022-12-18T10:55:22;15.93;;;9.63;;
5995;SDS011;3026;53.612;7.278;2022-12-18T10:57:50;12.60;;;7.73;;
5995;SDS011;3026;53.612;7.278;2022-12-18T11:00:23;16.53;;;8.10;;
5995;SDS011;3026;53.612;7.278;2022-12-18T11:02:52;14.27;;;8.57;;
5995;SDS011;3026;53.612;7.278;2022-12-18T11:05:24;13.03;;;8.20;;
5995;SDS011;3026;53.612;7.278;2022-12-18T11:07:53;14.87;;;8.13;;
5995;SDS011;3026;53.612;7.278;2022-12-18T11:10:22;12.87;;;7.83;;
5995;SDS011;3026;53.612;7.278;2022-12-18T11:12:52;13.73;;;7.57;;
5995;SDS011;3026;53.612;7.278;2022-12-18T11:15:20;14.53;;;7.97;;
5995;SDS011;3026;53.612;7.278;2022-12-18T11:17:52;9.97;;;6.30;;
5995;SDS011;3026;53.612;7.278;2022-12-18T11:20:21;10.40;;;6.27;;
5995;SDS011;3026;53.612;7.278;2022-12-18T11:22:54;10.67;;;6.90;;
5995;SDS011;3026;53.612;7.278;2022-12-18T11:25:22;11.07;;;5.90;;
5995;SDS011;3026;53.612;7.278;2022-12-18T11:27:51;10.13;;;5.93;;
5995;SDS011;3026;53.612;7.278;2022-12-18T11:30:24;12.03;;;6.63;;
5995;SDS011;3026;53.612;7.278;2022-12-18T11:32:54;8.53;;;5.47;;
5995;SDS011;3026;53.612;7.278;2022-12-18T11:35:30;11.27;;;6.43;;
5995;SDS011;3026;53.612;7.278;2022-12-18T11:38:04;9.87;;;6.27;;
5995;SDS011;3026;53.612;7.278;2022-12-18T11:40:40;12.27;;;6.67;;
5995;SDS011;3026;53.612;7.278;2022-12-18T11:43:12;9.80;;;6.13;;
5995;SDS011;3026;53.612;7.278;2022-12-18T11:45:46;12.97;;;5.90;;
5995;SDS011;3026;53.612;7.278;2022-12-18T11:48:18;11.70;;;6.20;;
5995;SDS011;3026;53.612;7.278;2022-12-18T11:50:51;9.47;;;6.13;;
5995;SDS011;3026;53.612;7.278;2022-12-18T11:53:19;10.87;;;6.20;;
5995;SDS011;3026;53.612;7.278;2022-12-18T11:55:49;8.80;;;5.47;;
5995;SDS011;3026;53.612;7.278;2022-12-18T11:58:29;8.47;;;5.90;;
5995;SDS011;3026;53.612;7.278;2022-12-18T12:01:11;11.83;;;5.70;;
5995;SDS011;3026;53.612;7.278;2022-12-18T12:03:51;11.23;;;5.80;;
5995;SDS011;3026;53.612;7.278;2022-12-18T12:06:35;8.90;;;5.50;;
5995;SDS011;3026;53.612;7.278;2022-12-18T12:09:13;9.77;;;6.10;;
5995;SDS011;3026;53.612;7.278;2022-12-18T12:11:49;9.67;;;5.90;;
5995;SDS011;3026;53.612;7.278;2022-12-18T12:14:32;9.53;;;5.70;;
5995;SDS011;3026;53.612;7.278;2022-12-18T12:17:14;10.37;;;6.47;;
5995;SDS011;3026;53.612;7.278;2022-12-18T12:19:52;10.20;;;5.27;;
5995;SDS011;3026;53.612;7.278;2022-12-18T12:22:27;8.80;;;5.80;;
5995;SDS011;3026;53.612;7.278;2022-12-18T12:25:13;9.50;;;5.60;;
5995;SDS011;3026;53.612;7.278;2022-12-18T12:27:52;7.87;;;5.30;;
5995;SDS011;3026;53.612;7.278;2022-12-18T12:30:30;8.07;;;5.43;;
5995;SDS011;3026;53.612;7.278;2022-12-18T12:33:12;9.63;;;5.57;;
5995;SDS011;3026;53.612;7.278;2022-12-18T12:35:50;10.33;;;5.80;;
5995;SDS011;3026;53.612;7.278;2022-12-18T12:38:28;9.83;;;5.47;;
5995;SDS011;3026;53.612;7.278;2022-12-18T12:41:01;11.70;;;5.73;;
5995;SDS011;3026;53.612;7.278;2022-12-18T12:43:33;12.43;;;6.23;;
5995;SDS011;3026;53.612;7.278;2022-12-18T12:46:04;10.13;;;6.27;;
5995;SDS011;3026;53.612;7.278;2022-12-18T12:48:37;8.57;;;6.00;;
5995;SDS011;3026;53.612;7.278;2022-12-18T12:51:12;8.87;;;5.80;;
5995;SDS011;3026;53.612;7.278;2022-12-18T12:53:44;9.60;;;5.57;;
5995;SDS011;3026;53.612;7.278;2022-12-18T12:56:13;8.53;;;5.33;;
5995;SDS011;3026;53.612;7.278;2022-12-18T12:58:45;8.67;;;5.20;;
5995;SDS011;3026;53.612;7.278;2022-12-18T13:01:23;9.17;;;5.90;;
5995;SDS011;3026;53.612;7.278;2022-12-18T13:03:58;9.17;;;6.00;;
5995;SDS011;3026;53.612;7.278;2022-12-18T13:06:35;8.97;;;5.40;;
5995;SDS011;3026;53.612;7.278;2022-12-18T13:09:08;10.63;;;6.10;;
5995;SDS011;3026;53.612;7.278;2022-12-18T13:11:36;9.47;;;5.73;;
5995;SDS011;3026;53.612;7.278;2022-12-18T13:14:24;9.27;;;5.43;;
5995;SDS011;3026;53.612;7.278;2022-12-18T13:17:14;8.40;;;5.67;;
5995;SDS011;3026;53.612;7.278;2022-12-18T13:20:04;8.57;;;5.33;;
5995;SDS011;3026;53.612;7.278;2022-12-18T13:22:37;9.67;;;5.73;;
5995;SDS011;3026;53.612;7.278;2022-12-18T13:28:04;8.70;;;5.83;;
5995;SDS011;3026;53.612;7.278;2022-12-18T13:33:38;11.60;;;6.53;;
5995;SDS011;3026;53.612;7.278;2022-12-18T13:39:21;9.67;;;5.83;;
5995;SDS011;3026;53.612;7.278;2022-12-18T13:45:40;10.47;;;6.73;;
5995;SDS011;3026;53.612;7.278;2022-12-18T13:48:16;8.97;;;6.07;;
5995;SDS011;3026;53.612;7.278;2022-12-18T13:50:47;10.43;;;6.63;;
5995;SDS011;3026;53.612;7.278;2022-12-18T13:53:18;9.67;;;6.60;;
5995;SDS011;3026;53.612;7.278;2022-12-18T13:55:48;11.93;;;6.97;;
5995;SDS011;3026;53.612;7.278;2022-12-18T13:58:16;12.20;;;7.00;;
5995;SDS011;3026;53.612;7.278;2022-12-18T14:00:43;10.33;;;6.53;;
5995;SDS011;3026;53.612;7.278;2022-12-18T14:03:20;11.30;;;7.10;;
5995;SDS011;3026;53.612;7.278;2022-12-18T14:05:54;11.00;;;6.23;;
5995;SDS011;3026;53.612;7.278;2022-12-18T14:08:27;12.33;;;7.10;;
5995;SDS011;3026;53.612;7.278;2022-12-18T14:11:02;10.10;;;6.33;;
5995;SDS011;3026;53.612;7.278;2022-12-18T14:13:33;11.87;;;7.50;;
5995;SDS011;3026;53.612;7.278;2022-12-18T14:16:04;9.63;;;6.43;;
5995;SDS011;3026;53.612;7.278;2022-12-18T14:18:36;12.20;;;6.23;;
5995;SDS011;3026;53.612;7.278;2022-12-18T14:21:15;11.63;;;7.10;;
5995;SDS011;3026;53.612;7.278;2022-12-18T14:23:47;12.57;;;6.87;;
5995;SDS011;3026;53.612;7.278;2022-12-18T14:26:19;13.27;;;7.53;;
5995;SDS011;3026;53.612;7.278;2022-12-18T14:28:48;11.63;;;6.40;;
5995;SDS011;3026;53.612;7.278;2022-12-18T14:31:18;11.37;;;6.87;;
5995;SDS011;3026;53.612;7.278;2022-12-18T14:33:46;10.07;;;6.67;;
5995;SDS011;3026;53.612;7.278;2022-12-18T14:36:15;11.60;;;6.80;;
5995;SDS011;3026;53.612;7.278;2022-12-18T14:38:43;9.77;;;6.63;;
5995;SDS011;3026;53.612;7.278;2022-12-18T14:41:17;12.47;;;6.50;;
5995;SDS011;3026;53.612;7.278;2022-12-18T14:43:46;9.97;;;6.43;;
5995;SDS011;3026;53.612;7.278;2022-12-18T14:46:33;13.90;;;6.73;;
5995;SDS011;3026;53.612;7.278;2022-12-18T14:49:02;13.27;;;7.20;;
5995;SDS011;3026;53.612;7.278;2022-12-18T14:51:31;11.03;;;7.43;;
5995;SDS011;3026;53.612;7.278;2022-12-18T14:54:02;9.50;;;6.60;;
5995;SDS011;3026;53.612;7.278;2022-12-18T14:56:33;9.67;;;6.77;;
5995;SDS011;3026;53.612;7.278;2022-12-18T14:59:02;10.67;;;6.87;;
5995;SDS011;3026;53.612;7.278;2022-12-18T15:01:31;9.83;;;6.17;;
5995;SDS011;3026;53.612;7.278;2022-12-18T15:04:01;9.67;;;6.00;;
5995;SDS011;3026;53.612;7.278;2022-12-18T15:06:31;12.30;;;7.37;;
5995;SDS011;3026;53.612;7.278;2022-12-18T15:09:00;9.77;;;6.13;;
5995;SDS011;3026;53.612;7.278;2022-12-18T15:11:34;11.37;;;6.47;;
5995;SDS011;3026;53.612;7.278;2022-12-18T15:16:50;10.77;;;5.90;;
5995;SDS011;3026;53.612;7.278;2022-12-18T15:19:19;11.80;;;6.70;;
5995;SDS011;3026;53.612;7.278;2022-12-18T15:21:48;8.87;;;5.73;;
5995;SDS011;3026;53.612;7.278;2022-12-18T15:24:20;10.40;;;6.23;;
5995;SDS011;3026;53.612;7.278;2022-12-18T15:26:53;11.80;;;5.40;;
5995;SDS011;3026;53.612;7.278;2022-12-18T15:29:20;9.87;;;5.93;;
5995;SDS011;3026;53.612;7.278;2022-12-18T15:31:58;13.73;;;7.23;;